createdAt,value
2022-10-01T00:01:19.718Z,99308.53
2022-10-01T00:03:48.079Z,99312.88
2022-10-01T00:06:21.527Z,99304.91
2022-10-01T00:08:50.262Z,99309.22
2022-10-01T00:11:23.774Z,99304.78
2022-10-01T00:13:51.851Z,99292.56
2022-10-01T00:16:23.242Z,99293.44
2022-10-01T00:18:50.561Z,99291.69
2022-10-01T00:21:24.032Z,99290.81
2022-10-01T00:23:58.671Z,99299.63
2022-10-01T00:26:34.765Z,99297.94
2022-10-01T00:29:04.990Z,99298.00
2022-10-01T00:31:32.908Z,99286.72
2022-10-01T00:34:02.882Z,99282.41
2022-10-01T00:36:30.982Z,99285.91
2022-10-01T00:39:00.684Z,99279.78
2022-10-01T00:41:33.958Z,99272.75
2022-10-01T00:44:03.413Z,99276.19
2022-10-01T00:46:40.790Z,99275.28
2022-10-01T00:49:19.526Z,99266.63
2022-10-01T00:52:10.948Z,99264.94
2022-10-01T00:55:06.965Z,99273.66
2022-10-01T00:57:34.784Z,99276.28
2022-10-01T01:00:05.625Z,99273.69
2022-10-01T01:02:32.557Z,99271.88
2022-10-01T01:05:00.299Z,99271.88
2022-10-01T01:07:29.181Z,99268.28
2022-10-01T01:09:56.421Z,99270.84
2022-10-01T01:12:57.271Z,99276.88
2022-10-01T01:15:29.798Z,99271.56
2022-10-01T01:18:19.517Z,99268.84
2022-10-01T01:21:09.433Z,99275.84
2022-10-01T01:23:57.797Z,99277.56
2022-10-01T01:26:54.252Z,99272.31
2022-10-01T01:29:32.618Z,99273.16
2022-10-01T01:32:09.446Z,99273.22
2022-10-01T01:34:43.621Z,99275.84
2022-10-01T01:37:14.443Z,99282.88
2022-10-01T01:39:46.455Z,99274.22
2022-10-01T01:42:24.221Z,99272.50
2022-10-01T01:44:54.977Z,99271.69
2022-10-01T01:47:25.112Z,99270.78
2022-10-01T01:49:53.401Z,99262.94
2022-10-01T01:52:20.352Z,99271.56
2022-10-01T01:54:50.383Z,99265.34
2022-10-01T01:57:18.881Z,99266.13
2022-10-01T01:59:46.384Z,99268.56
2022-10-01T02:02:25.298Z,99267.56
2022-10-01T02:05:02.292Z,99274.47
2022-10-01T02:07:49.219Z,99266.47
2022-10-01T02:10:34.657Z,99269.84
2022-10-01T02:13:08.393Z,99269.72
2022-10-01T02:16:04.631Z,99278.41
2022-10-01T02:19:00.438Z,99270.56
2022-10-01T02:21:40.398Z,99263.47
2022-10-01T02:24:31.035Z,99271.25
2022-10-01T02:27:01.682Z,99278.25
2022-10-01T02:29:29.690Z,99271.19
2022-10-01T02:31:57.582Z,99274.59
2022-10-01T02:34:29.221Z,99273.75
2022-10-01T02:36:59.479Z,99267.59
2022-10-01T02:39:29.855Z,99277.19
2022-10-01T02:41:59.235Z,99274.53
2022-10-01T02:44:38.045Z,99276.31
2022-10-01T02:47:08.004Z,99272.78
2022-10-01T02:49:37.082Z,99281.47
2022-10-01T02:52:10.108Z,99292.03
2022-10-01T02:54:52.776Z,99300.81
2022-10-01T02:57:29.088Z,99296.47
2022-10-01T02:59:59.316Z,99303.41
2022-10-01T03:02:28.771Z,99300.91
2022-10-01T03:04:57.686Z,99296.56
2022-10-01T03:07:26.301Z,99285.34
2022-10-01T03:09:53.455Z,99270.56
2022-10-01T03:12:20.492Z,99274.97
2022-10-01T03:14:47.844Z,99265.44
2022-10-01T03:17:16.004Z,99256.72
2022-10-01T03:19:43.172Z,99263.75
2022-10-01T03:22:18.360Z,99269.97
2022-10-01T03:24:45.369Z,99272.72
2022-10-01T03:27:12.187Z,99275.38
2022-10-01T03:29:39.173Z,99272.75
2022-10-01T03:32:06.156Z,99272.69
2022-10-01T03:34:33.046Z,99257.91
2022-10-01T03:36:59.894Z,99264.03
2022-10-01T03:39:26.910Z,99271.81
2022-10-01T03:41:53.739Z,99270.03
2022-10-01T03:44:20.609Z,99265.69
2022-10-01T03:46:47.532Z,99252.59
2022-10-01T03:49:14.434Z,99250.06
2022-10-01T03:51:41.553Z,99244.69
2022-10-01T03:54:09.354Z,99247.25
2022-10-01T03:56:36.333Z,99248.97
2022-10-01T03:59:03.202Z,99248.88
2022-10-01T04:01:31.169Z,99248.91
2022-10-01T04:03:58.634Z,99254.22
2022-10-01T04:06:25.471Z,99241.25
2022-10-01T04:08:52.411Z,99252.69
2022-10-01T04:11:19.212Z,99256.19
2022-10-01T04:13:46.015Z,99270.19
2022-10-01T04:16:13.176Z,99272.84
2022-10-01T04:18:40.138Z,99273.63
2022-10-01T04:21:06.986Z,99284.03
2022-10-01T04:23:33.954Z,99261.38
2022-10-01T04:26:02.501Z,99254.31
2022-10-01T04:28:30.825Z,99247.34
2022-10-01T04:31:16.785Z,99250.72
2022-10-01T04:33:44.525Z,99249.06
2022-10-01T04:36:11.662Z,99255.19
2022-10-01T04:38:38.595Z,99259.59
2022-10-01T04:41:05.761Z,99252.63
2022-10-01T04:43:32.707Z,99279.69
2022-10-01T04:45:59.575Z,99272.66
2022-10-01T04:48:26.339Z,99264.00
2022-10-01T04:50:53.522Z,99279.56
2022-10-01T04:53:20.387Z,99276.84
2022-10-01T04:55:47.155Z,99287.22
2022-10-01T04:58:14.186Z,99295.00
2022-10-01T05:00:41.459Z,99283.56
2022-10-01T05:03:08.457Z,99268.56
2022-10-01T05:05:35.373Z,99269.41
2022-10-01T05:08:03.253Z,99274.81
2022-10-01T05:10:30.206Z,99270.34
2022-10-01T05:12:58.099Z,99271.97
2022-10-01T05:15:25.017Z,99272.84
2022-10-01T05:17:51.873Z,99284.06
2022-10-01T05:20:21.541Z,99282.22
2022-10-01T05:22:52.198Z,99284.84
2022-10-01T05:25:19.793Z,99290.09
2022-10-01T05:27:47.126Z,99277.03
2022-10-01T05:30:20.204Z,99285.72
2022-10-01T05:32:55.522Z,99292.88
2022-10-01T05:35:22.383Z,99303.91
2022-10-01T05:37:53.351Z,99305.41
2022-10-01T05:40:20.194Z,99308.03
2022-10-01T05:42:50.144Z,99301.53
2022-10-01T05:45:17.315Z,99314.53
2022-10-01T05:47:44.963Z,99306.38
2022-10-01T05:50:11.845Z,99303.69
2022-10-01T05:52:38.751Z,99310.72
2022-10-01T05:55:05.838Z,99317.72
2022-10-01T05:57:33.272Z,99327.34
2022-10-01T06:00:00.202Z,99347.44
2022-10-01T06:02:27.244Z,99342.44
2022-10-01T06:04:54.174Z,99338.91
2022-10-01T06:07:20.993Z,99334.63
2022-10-01T06:09:47.919Z,99337.38
2022-10-01T06:12:19.598Z,99317.47
2022-10-01T06:14:46.679Z,99334.19
2022-10-01T06:17:13.479Z,99338.47
2022-10-01T06:19:40.231Z,99342.00
2022-10-01T06:22:07.020Z,99340.41
2022-10-01T06:24:34.119Z,99338.53
2022-10-01T06:27:00.907Z,99334.25
2022-10-01T06:29:27.677Z,99340.34
2022-10-01T06:31:54.712Z,99334.25
2022-10-01T06:34:21.685Z,99331.66
2022-10-01T06:36:48.468Z,99330.81
2022-10-01T06:39:15.357Z,99327.19
2022-10-01T06:41:43.672Z,99333.16
2022-10-01T06:44:10.892Z,99331.69
2022-10-01T06:46:37.953Z,99336.88
2022-10-01T06:49:04.747Z,99339.63
2022-10-01T06:51:50.363Z,99334.84
2022-10-01T06:54:18.495Z,99343.28
2022-10-01T06:56:45.493Z,99338.56
2022-10-01T06:59:12.543Z,99330.06
2022-10-01T07:01:39.580Z,99331.19
2022-10-01T07:04:06.801Z,99321.63
2022-10-01T07:06:33.598Z,99320.84
2022-10-01T07:09:00.539Z,99320.06
2022-10-01T07:11:27.405Z,99338.38
2022-10-01T07:13:57.767Z,99339.38
2022-10-01T07:16:24.588Z,99342.88
2022-10-01T07:18:52.351Z,99345.59
2022-10-01T07:21:19.145Z,99325.31
2022-10-01T07:23:45.896Z,99329.59
2022-10-01T07:26:12.698Z,99317.31
2022-10-01T07:28:39.571Z,99322.41
2022-10-01T07:31:11.444Z,99331.31
2022-10-01T07:33:39.440Z,99329.38
2022-10-01T07:36:08.341Z,99324.13
2022-10-01T07:38:35.664Z,99325.66
2022-10-01T07:41:03.595Z,99325.72
2022-10-01T07:43:33.181Z,99326.34
2022-10-01T07:46:02.145Z,99327.03
2022-10-01T07:48:29.041Z,99339.16
2022-10-01T07:51:03.973Z,99334.25
2022-10-01T07:53:31.170Z,99345.28
2022-10-01T07:56:02.070Z,99342.28
2022-10-01T07:58:31.534Z,99334.09
2022-10-01T08:01:00.759Z,99340.28
2022-10-01T08:03:27.782Z,99358.69
2022-10-01T08:05:54.790Z,99354.09
2022-10-01T08:08:21.624Z,99362.25
2022-10-01T08:10:50.851Z,99367.31
2022-10-01T08:13:18.244Z,99374.03
2022-10-01T08:15:47.523Z,99371.53
2022-10-01T08:18:14.706Z,99372.19
2022-10-01T08:20:41.574Z,99372.19
2022-10-01T08:23:14.344Z,99377.38
2022-10-01T08:25:42.080Z,99383.00
2022-10-01T08:28:11.126Z,99374.28
2022-10-01T08:30:40.052Z,99357.38
2022-10-01T08:33:08.024Z,99351.22
2022-10-01T08:35:34.892Z,99354.06
2022-10-01T08:38:03.523Z,99352.03
2022-10-01T08:40:36.920Z,99353.56
2022-10-01T08:43:08.770Z,99342.13
2022-10-01T08:45:45.152Z,99333.59
2022-10-01T08:48:56.898Z,99340.41
2022-10-01T08:51:34.048Z,99338.03
2022-10-01T08:54:17.274Z,99332.91
2022-10-01T08:56:46.744Z,99322.13
2022-10-01T08:59:47.291Z,99322.38
2022-10-01T09:02:30.315Z,99321.88
2022-10-01T09:05:01.750Z,99320.00
2022-10-01T09:07:37.932Z,99311.25
2022-10-01T09:10:26.849Z,99310.69
2022-10-01T09:13:14.092Z,99320.59
2022-10-01T09:15:52.091Z,99328.47
2022-10-01T09:18:26.841Z,99327.66
2022-10-01T09:20:59.062Z,99315.44
2022-10-01T09:23:40.118Z,99314.59
2022-10-01T09:26:12.444Z,99317.38
2022-10-01T09:28:41.767Z,99311.66
2022-10-01T09:31:25.018Z,99282.53
2022-10-01T09:34:02.977Z,99270.31
2022-10-01T09:36:58.816Z,99262.47
2022-10-01T09:39:37.324Z,99247.72
2022-10-01T09:42:04.501Z,99251.41
2022-10-01T09:44:33.982Z,99259.44
2022-10-01T09:47:00.895Z,99249.81
2022-10-01T09:49:37.185Z,99232.47
2022-10-01T09:52:28.803Z,99225.38
2022-10-01T09:55:20.479Z,99202.69
2022-10-01T09:58:18.584Z,99199.25
2022-10-01T10:00:45.983Z,99198.31
2022-10-01T10:03:28.988Z,99199.84
2022-10-01T10:05:59.934Z,99201.28
2022-10-01T10:08:28.523Z,99195.88
2022-10-01T10:11:00.685Z,99190.50
2022-10-01T10:13:35.409Z,99205.06
2022-10-01T10:16:26.617Z,99202.13
2022-10-01T10:19:02.482Z,99206.47
2022-10-01T10:21:35.128Z,99194.25
2022-10-01T10:24:07.483Z,99218.84
2022-10-01T10:26:40.188Z,99220.28
2022-10-01T10:29:24.797Z,99222.75
2022-10-01T10:31:51.806Z,99214.72
2022-10-01T10:34:27.942Z,99209.84
2022-10-01T10:37:05.362Z,99197.78
2022-10-01T10:39:36.549Z,99186.16
2022-10-01T10:42:05.836Z,99180.13
2022-10-01T10:44:39.121Z,99178.38
2022-10-01T10:47:13.860Z,99173.94
2022-10-01T10:49:52.260Z,99174.72
2022-10-01T10:52:30.222Z,99167.09
2022-10-01T10:54:59.403Z,99162.28
2022-10-01T10:57:34.456Z,99147.28
2022-10-01T11:00:13.666Z,99144.19
2022-10-01T11:02:49.082Z,99146.66
2022-10-01T11:05:20.903Z,99135.69
2022-10-01T11:07:51.184Z,99144.56
2022-10-01T11:10:47.287Z,99150.34
2022-10-01T11:13:44.644Z,99133.66
2022-10-01T11:16:36.224Z,99142.28
2022-10-01T11:19:34.384Z,99146.53
2022-10-01T11:22:16.381Z,99133.16
2022-10-01T11:25:01.097Z,99128.53
2022-10-01T11:27:42.792Z,99110.97
2022-10-01T11:30:26.643Z,99102.66
2022-10-01T11:33:00.884Z,99103.53
2022-10-01T11:35:51.800Z,99099.31
2022-10-01T11:38:24.758Z,99094.03
2022-10-01T11:40:57.049Z,99087.28
2022-10-01T11:43:31.943Z,99084.63
2022-10-01T11:46:25.534Z,99094.03
2022-10-01T11:49:02.603Z,99081.16
2022-10-01T11:51:42.376Z,99073.19
2022-10-01T11:54:15.936Z,99063.31
2022-10-01T11:57:13.759Z,99057.19
2022-10-01T12:00:08.605Z,99048.22
2022-10-01T12:02:47.962Z,99042.56
2022-10-01T12:05:22.185Z,99050.88
2022-10-01T12:07:55.700Z,99041.22
2022-10-01T12:10:38.999Z,99039.56
2022-10-01T12:13:19.983Z,99041.91
2022-10-01T12:15:56.392Z,99034.50
2022-10-01T12:18:32.386Z,99022.94
2022-10-01T12:21:07.893Z,99023.75
2022-10-01T12:23:42.942Z,99009.66
2022-10-01T12:26:47.326Z,99000.28
2022-10-01T12:29:32.854Z,99003.00
2022-10-01T12:32:25.595Z,98992.44
2022-10-01T12:35:18.316Z,98993.81
2022-10-01T12:38:00.663Z,98985.84
2022-10-01T12:40:41.015Z,98999.47
2022-10-01T12:43:35.973Z,98999.34
2022-10-01T12:46:45.073Z,98989.75
2022-10-01T12:49:41.046Z,98989.91
2022-10-01T12:52:26.552Z,99001.06
2022-10-01T12:55:14.083Z,99002.22
2022-10-01T12:58:08.605Z,99002.06
2022-10-01T13:00:43.123Z,98992.56
2022-10-01T13:03:24.951Z,98982.94
2022-10-01T13:06:10.907Z,98968.22
2022-10-01T13:08:53.766Z,98970.03
2022-10-01T13:11:20.860Z,98978.50
2022-10-01T13:13:52.685Z,98971.44
2022-10-01T13:16:35.040Z,98963.44
2022-10-01T13:19:31.079Z,98960.91
2022-10-01T13:22:14.918Z,98971.78
2022-10-01T13:25:01.016Z,98976.28
2022-10-01T13:27:44.306Z,98966.25
2022-10-01T13:30:24.695Z,98955.81
2022-10-01T13:32:53.587Z,98957.81
2022-10-01T13:35:52.911Z,98963.25
2022-10-01T13:38:38.014Z,98968.69
2022-10-01T13:41:15.692Z,98959.34
2022-10-01T13:43:52.701Z,98963.97
2022-10-01T13:46:19.787Z,98966.94
2022-10-01T13:48:50.657Z,98970.69
2022-10-01T13:51:17.762Z,98957.44
2022-10-01T13:53:45.088Z,98960.69
2022-10-01T13:56:15.481Z,98967.19
2022-10-01T13:58:45.071Z,98972.28
2022-10-01T14:01:24.022Z,98961.50
2022-10-01T14:03:57.592Z,98970.16
2022-10-01T14:06:33.014Z,98948.81
2022-10-01T14:09:25.101Z,98940.00
2022-10-01T14:12:16.064Z,98927.97
2022-10-01T14:15:13.636Z,98930.56
2022-10-01T14:17:41.490Z,98920.31
2022-10-01T14:20:09.090Z,98910.06
2022-10-01T14:22:53.275Z,98904.06
2022-10-01T14:25:53.650Z,98899.56
2022-10-01T14:28:29.883Z,98890.91
2022-10-01T14:31:12.274Z,98880.81
2022-10-01T14:34:28.517Z,98880.00
2022-10-01T14:36:56.278Z,98882.53
2022-10-01T14:39:27.919Z,98881.75
2022-10-01T14:41:56.656Z,98878.31
2022-10-01T14:44:36.478Z,98882.41
2022-10-01T14:47:14.091Z,98894.31
2022-10-01T14:49:40.955Z,98879.50
2022-10-01T14:52:18.487Z,98874.66
2022-10-01T14:55:00.939Z,98871.78
2022-10-01T14:57:36.255Z,98871.44
2022-10-01T15:00:13.996Z,98867.72
2022-10-01T15:02:49.681Z,98867.34
2022-10-01T15:05:20.387Z,98865.16
2022-10-01T15:07:47.516Z,98866.50
2022-10-01T15:10:19.145Z,98867.38
2022-10-01T15:12:49.671Z,98858.00
2022-10-01T15:15:31.443Z,98860.19
2022-10-01T15:17:58.541Z,98850.94
2022-10-01T15:20:25.594Z,98855.88
2022-10-01T15:23:00.434Z,98846.69
2022-10-01T15:25:31.371Z,98849.84
2022-10-01T15:27:58.328Z,98844.03
2022-10-01T15:30:28.202Z,98846.34
2022-10-01T15:32:55.386Z,98837.03
2022-10-01T15:35:23.697Z,98839.88
2022-10-01T15:37:51.948Z,98832.06
2022-10-01T15:40:30.918Z,98829.81
2022-10-01T15:43:26.362Z,98823.94
2022-10-01T15:46:05.252Z,98809.75
2022-10-01T15:48:33.612Z,98814.56
2022-10-01T15:51:16.784Z,98804.44
2022-10-01T15:53:44.462Z,98796.25
2022-10-01T15:56:19.291Z,98799.16
2022-10-01T15:58:53.227Z,98796.53
2022-10-01T16:01:30.023Z,98792.97
2022-10-01T16:04:01.662Z,98793.03
2022-10-01T16:06:35.292Z,98794.28
2022-10-01T16:09:16.027Z,98803.72
2022-10-01T16:12:02.357Z,98807.53
2022-10-01T16:14:41.040Z,98808.59
2022-10-01T16:17:17.173Z,98817.59
2022-10-01T16:19:49.482Z,98826.56
2022-10-01T16:22:28.886Z,98837.25
2022-10-01T16:24:57.768Z,98854.75
2022-10-01T16:27:31.746Z,98902.59
2022-10-01T16:30:12.366Z,98896.94
2022-10-01T16:32:39.158Z,98909.53
2022-10-01T16:35:15.393Z,98921.66
2022-10-01T16:37:42.415Z,98918.56
2022-10-01T16:40:13.903Z,98934.91
2022-10-01T16:42:43.745Z,98934.41
2022-10-01T16:45:19.344Z,98929.38
2022-10-01T16:47:46.593Z,98953.41
2022-10-01T16:50:16.104Z,98961.59
2022-10-01T16:52:43.334Z,98967.84
2022-10-01T16:55:32.602Z,98972.78
2022-10-01T16:57:59.399Z,98967.69
2022-10-01T17:00:28.030Z,98976.50
2022-10-01T17:02:56.211Z,98989.16
2022-10-01T17:05:25.943Z,98990.91
2022-10-01T17:07:54.192Z,98993.13
2022-10-01T17:10:23.627Z,98985.84
2022-10-01T17:12:51.088Z,98989.22
2022-10-01T17:15:27.094Z,98993.03
2022-10-01T17:17:54.993Z,98989.69
2022-10-01T17:20:23.344Z,98996.03
2022-10-01T17:22:50.994Z,99003.06
2022-10-01T17:25:21.489Z,99007.31
2022-10-01T17:27:49.091Z,99001.00
2022-10-01T17:30:16.877Z,98998.38
2022-10-01T17:32:44.944Z,99009.09
2022-10-01T17:35:13.983Z,99008.16
2022-10-01T17:37:41.573Z,99008.78
2022-10-01T17:40:09.830Z,99013.16
2022-10-01T17:42:37.018Z,99018.28
2022-10-01T17:45:06.823Z,99029.19
2022-10-01T17:47:33.996Z,99036.88
2022-10-01T17:50:01.295Z,99044.22
2022-10-01T17:52:30.702Z,99054.44
2022-10-01T17:54:57.474Z,99056.59
2022-10-01T17:57:24.843Z,99062.13
2022-10-01T17:59:51.994Z,99081.06
2022-10-01T18:02:40.499Z,99108.06
2022-10-01T18:05:09.553Z,99100.00
2022-10-01T18:07:37.365Z,99067.53
2022-10-01T18:10:06.387Z,99133.53
2022-10-01T18:12:33.982Z,99151.97
2022-10-01T18:15:01.773Z,99093.28
2022-10-01T18:17:29.173Z,99130.00
2022-10-01T18:19:57.299Z,99150.25
2022-10-01T18:22:24.155Z,99115.31
2022-10-01T18:24:51.024Z,99055.94
2022-10-01T18:27:17.993Z,99070.97
2022-10-01T18:29:44.853Z,99077.19
2022-10-01T18:32:36.154Z,99078.94
2022-10-01T18:35:06.284Z,99091.16
2022-10-01T18:37:40.448Z,99082.50
2022-10-01T18:40:13.472Z,99074.00
2022-10-01T18:43:06.713Z,99092.47
2022-10-01T18:45:52.287Z,99097.63
2022-10-01T18:48:53.647Z,99079.34
2022-10-01T18:51:54.506Z,99069.75
2022-10-01T18:54:34.695Z,99069.09
2022-10-01T18:57:04.661Z,99075.16
2022-10-01T18:59:47.010Z,99074.34
2022-10-01T19:02:52.324Z,99073.59
2022-10-01T19:05:42.166Z,99089.56
2022-10-01T19:08:33.222Z,99116.91
2022-10-01T19:11:03.037Z,99103.91
2022-10-01T19:13:35.002Z,99103.81
2022-10-01T19:16:17.013Z,99078.31
2022-10-01T19:18:51.882Z,99072.06
2022-10-01T19:21:25.533Z,99085.16
2022-10-01T19:24:14.429Z,99081.63
2022-10-01T19:26:43.977Z,99070.34
2022-10-01T19:29:49.386Z,99066.88
2022-10-01T19:32:24.064Z,99057.38
2022-10-01T19:35:02.986Z,99058.41
2022-10-01T19:37:29.742Z,99088.22
2022-10-01T19:40:07.349Z,99097.75
2022-10-01T19:42:39.762Z,99097.72
2022-10-01T19:45:37.700Z,99099.47
2022-10-01T19:48:26.199Z,99095.53
2022-10-01T19:51:00.235Z,99069.47
2022-10-01T19:53:32.078Z,99051.84
2022-10-01T19:56:01.336Z,99052.97
2022-10-01T19:58:30.548Z,99031.13
2022-10-01T20:01:01.960Z,99015.16
2022-10-01T20:03:39.508Z,99007.22
2022-10-01T20:06:20.725Z,99005.28
2022-10-01T20:08:53.758Z,99006.94
2022-10-01T20:11:39.046Z,99019.09
2022-10-01T20:14:39.555Z,99032.91
2022-10-01T20:17:19.326Z,99024.13
2022-10-01T20:19:51.686Z,99013.84
2022-10-01T20:22:30.589Z,99025.09
2022-10-01T20:25:00.302Z,99034.69
2022-10-01T20:28:02.433Z,99042.59
2022-10-01T20:30:34.478Z,99044.22
2022-10-01T20:33:10.401Z,99041.66
2022-10-01T20:36:07.478Z,99025.09
2022-10-01T20:38:40.124Z,99029.44
2022-10-01T20:41:14.747Z,99045.94
2022-10-01T20:43:51.575Z,99042.41
2022-10-01T20:46:35.500Z,99034.56
2022-10-01T20:49:27.401Z,99030.13
2022-10-01T20:52:11.303Z,99007.78
2022-10-01T20:54:46.338Z,99005.59
2022-10-01T20:57:33.339Z,99011.56
2022-10-01T21:00:17.123Z,99009.78
2022-10-01T21:02:51.110Z,99024.47
2022-10-01T21:05:28.033Z,99018.41
2022-10-01T21:08:11.015Z,99015.78
2022-10-01T21:10:49.265Z,99018.34
2022-10-01T21:13:25.679Z,99000.03
2022-10-01T21:16:05.751Z,98993.09
2022-10-01T21:18:39.805Z,99001.00
2022-10-01T21:21:33.918Z,98992.25
2022-10-01T21:24:26.119Z,98991.31
2022-10-01T21:27:01.624Z,98989.59
2022-10-01T21:29:51.607Z,98999.22
2022-10-01T21:32:31.442Z,99001.06
2022-10-01T21:35:28.284Z,99008.03
2022-10-01T21:38:17.609Z,99000.19
2022-10-01T21:41:06.615Z,98993.22
2022-10-01T21:43:42.122Z,99006.19
2022-10-01T21:46:49.378Z,99008.94
2022-10-01T21:49:22.325Z,99010.75
2022-10-01T21:52:10.697Z,99012.47
2022-10-01T21:54:46.416Z,99018.59
2022-10-01T21:57:22.383Z,99009.91
2022-10-01T21:59:58.351Z,99011.72
2022-10-01T22:02:27.941Z,99008.28
2022-10-01T22:05:09.744Z,99022.31
2022-10-01T22:07:55.062Z,99026.75
2022-10-01T22:10:36.698Z,99032.09
2022-10-01T22:13:12.115Z,99027.75
2022-10-01T22:15:43.349Z,99019.09
2022-10-01T22:18:19.532Z,99027.78
2022-10-01T22:20:48.002Z,99020.94
2022-10-01T22:23:18.770Z,99039.22
2022-10-01T22:25:57.878Z,99042.72
2022-10-01T22:28:33.081Z,99046.25
2022-10-01T22:31:03.331Z,99042.84
2022-10-01T22:33:38.531Z,99038.50
2022-10-01T22:36:22.192Z,99038.59
2022-10-01T22:39:07.782Z,99036.94
2022-10-01T22:41:41.416Z,99024.84
2022-10-01T22:44:20.411Z,99039.63
2022-10-01T22:46:49.914Z,99049.19
2022-10-01T22:49:40.979Z,99048.34
2022-10-01T22:52:34.181Z,99057.03
2022-10-01T22:55:45.535Z,99046.63
2022-10-01T22:58:45.353Z,99038.09
2022-10-01T23:01:41.185Z,99049.38
2022-10-01T23:04:41.242Z,99054.47
2022-10-01T23:07:19.977Z,99061.50
2022-10-01T23:10:13.483Z,99057.97
2022-10-01T23:13:15.444Z,99059.69
2022-10-01T23:16:13.098Z,99063.19
2022-10-01T23:18:51.911Z,99069.25
2022-10-01T23:21:32.823Z,99078.00
2022-10-01T23:24:18.066Z,99083.41
2022-10-01T23:27:22.072Z,99079.94
2022-10-01T23:30:12.199Z,99084.28
2022-10-01T23:33:01.256Z,99092.97
2022-10-01T23:35:59.415Z,99087.78
2022-10-01T23:38:29.892Z,99091.31
2022-10-01T23:41:02.234Z,99091.34
2022-10-01T23:43:41.551Z,99098.31
2022-10-01T23:46:14.684Z,99108.81
2022-10-01T23:48:48.601Z,99113.19
2022-10-01T23:51:46.070Z,99121.94
2022-10-01T23:54:36.932Z,99130.72
2022-10-01T23:57:31.432Z,99141.19
